PWSweather.com
Personal Weather Stations
Station Observations
SUBOTICARS
SuboticaYU

SuboticaYU

Lat: 46.1296717, Lon: 19.641551

Elevation: 361

Station Type: Nexus

http://sumeteo.info

High Low Average
Temperature 70.3°F21.3°C 37.0°F2.8°C 56.2°F13.4°C
Dew Point 39.8°F4.3°C 21.0°F-6.1°C 31.0°F-0.6°C
Winds 10.4 mph 16.7 kmh 1.2 mph 1.9 kmh 6.0 mph E9.7 kmh E
Wind Gusts 15.0 mph24.1 kmh 1.2 mph1.9 kmh 7.0 mph11.3 kmh
Humidity 55% 28% 39%
Pressure 29.75 in1007.5 mb 29.65 in1004.1 mb -
Precipitation 0.00 in0.0 mm - -
Hour Temp Dew Point Humidity Winds Wind Gusts Pressure Precip Precip Rate Daily Precip Total
12:00 AM 40.1°F4.5°C 22.0°F-5.6°C 48% Calm Calm -- 29.67 in1004.7 mb - 0.00 in0.0 mm 0.00 in0.0 mm
12:10 AM 39.6°F4.2°C 21.5°F-5.8°C 48% 1.2 mph NNW1.9 kmh NNW 1.2 mph1.9 kmh 29.67 in1004.7 mb - 0.00 in0.0 mm 0.00 in0.0 mm
12:15 AM 39.4°F4.1°C 21.3°F-5.9°C 48% 1.2 mph NNW1.9 kmh NNW 1.2 mph1.9 kmh 29.67 in1004.7 mb - 0.00 in0.0 mm 0.00 in0.0 mm
12:20 AM 39.2°F4.0°C 21.1°F-6.1°C 48% 1.2 mph NNW1.9 kmh NNW 1.2 mph1.9 kmh 29.67 in1004.7 mb - 0.00 in0.0 mm 0.00 in0.0 mm
12:25 AM 39.2°F4.0°C 21.1°F-6.1°C 48% Calm Calm -- 29.67 in1004.7 mb - 0.00 in0.0 mm 0.00 in0.0 mm
12:30 AM 38.9°F3.8°C 21.4°F-5.9°C 49% Calm Calm -- 29.67 in1004.7 mb - 0.00 in0.0 mm 0.00 in0.0 mm
12:35 AM 38.8°F3.8°C 21.3°F-5.9°C 49% Calm Calm -- 29.67 in1004.7 mb - 0.00 in0.0 mm 0.00 in0.0 mm
12:40 AM 38.7°F3.7°C 21.1°F-6.1°C 49% Calm Calm -- 29.67 in1004.7 mb - 0.00 in0.0 mm 0.00 in0.0 mm
12:45 AM 38.5°F3.6°C 21.4°F-5.9°C 50% 2.3 mph NNW3.7 kmh NNW 2.3 mph3.7 kmh 29.67 in1004.7 mb - 0.00 in0.0 mm 0.00 in0.0 mm
12:50 AM 38.3°F3.5°C 21.3°F-5.9°C 50% 1.2 mph NNW1.9 kmh NNW 2.3 mph3.7 kmh 29.67 in1004.7 mb - 0.00 in0.0 mm 0.00 in0.0 mm
12:55 AM 38.1°F3.4°C 21.1°F-6.1°C 50% 1.2 mph NNW1.9 kmh NNW 2.3 mph3.7 kmh 29.67 in1004.7 mb - 0.00 in0.0 mm 0.00 in0.0 mm
01:00 AM 38.1°F3.4°C 21.1°F-6.1°C 50% 1.2 mph NNW1.9 kmh NNW 2.3 mph3.7 kmh 29.66 in1004.4 mb - 0.00 in0.0 mm 0.00 in0.0 mm
01:10 AM 37.9°F3.3°C 21.4°F-5.9°C 51% 1.2 mph NNW1.9 kmh NNW 2.3 mph3.7 kmh 29.66 in1004.4 mb - 0.00 in0.0 mm 0.00 in0.0 mm
01:15 AM 37.9°F3.3°C 21.9°F-5.6°C 52% 1.2 mph NNW1.9 kmh NNW 2.3 mph3.7 kmh 29.66 in1004.4 mb - 0.00 in0.0 mm 0.00 in0.0 mm
01:20 AM 38.1°F3.4°C 22.0°F-5.6°C 52% 2.3 mph NNW3.7 kmh NNW 2.3 mph3.7 kmh 29.66 in1004.4 mb - 0.00 in0.0 mm 0.00 in0.0 mm
01:25 AM 38.0°F3.3°C 21.9°F-5.6°C 52% 2.3 mph NNW3.7 kmh NNW 2.3 mph3.7 kmh 29.66 in1004.4 mb - 0.00 in0.0 mm 0.00 in0.0 mm
01:30 AM 37.7°F3.2°C 21.6°F-5.8°C 52% 2.3 mph NNW3.7 kmh NNW 3.5 mph5.6 kmh 29.66 in1004.4 mb - 0.00 in0.0 mm 0.00 in0.0 mm
01:35 AM 37.7°F3.2°C 21.7°F-5.7°C 52% 3.5 mph N5.6 kmh N 3.5 mph5.6 kmh 29.66 in1004.4 mb - 0.00 in0.0 mm 0.00 in0.0 mm
01:40 AM 37.6°F3.1°C 21.1°F-6.1°C 51% 2.3 mph NNW3.7 kmh NNW 3.5 mph5.6 kmh 29.66 in1004.4 mb - 0.00 in0.0 mm 0.00 in0.0 mm
01:45 AM 37.4°F3.0°C 21.4°F-5.9°C 52% 2.3 mph NNW3.7 kmh NNW 2.3 mph3.7 kmh 29.66 in1004.4 mb - 0.00 in0.0 mm 0.00 in0.0 mm
01:50 AM 37.4°F3.0°C 21.4°F-5.9°C 52% 3.5 mph N5.6 kmh N 3.5 mph5.6 kmh 29.66 in1004.4 mb - 0.00 in0.0 mm 0.00 in0.0 mm
01:55 AM 37.4°F3.0°C 21.8°F-5.7°C 53% 2.3 mph N3.7 kmh N 3.5 mph5.6 kmh 29.66 in1004.4 mb - 0.00 in0.0 mm 0.00 in0.0 mm
02:00 AM 37.6°F3.1°C 22.0°F-5.6°C 53% 2.3 mph NNW3.7 kmh NNW 3.5 mph5.6 kmh 29.67 in1004.7 mb - 0.00 in0.0 mm 0.00 in0.0 mm
02:10 AM 37.4°F3.0°C 21.8°F-5.7°C 53% 2.3 mph NNW3.7 kmh NNW 3.5 mph5.6 kmh 29.67 in1004.7 mb - 0.00 in0.0 mm 0.00 in0.0 mm
02:15 AM 37.0°F2.8°C 21.0°F-6.1°C 52% 3.5 mph NNW5.6 kmh NNW 3.5 mph5.6 kmh 29.66 in1004.4 mb - 0.00 in0.0 mm 0.00 in0.0 mm
02:20 AM 37.4°F3.0°C 21.8°F-5.7°C 53% 3.5 mph N5.6 kmh N 3.5 mph5.6 kmh 29.66 in1004.4 mb - 0.00 in0.0 mm 0.00 in0.0 mm
02:25 AM 37.6°F3.1°C 22.0°F-5.6°C 53% 3.5 mph NNW5.6 kmh NNW 3.5 mph5.6 kmh 29.66 in1004.4 mb - 0.00 in0.0 mm 0.00 in0.0 mm
02:30 AM 37.6°F3.1°C 22.0°F-5.6°C 53% 2.3 mph N3.7 kmh N 3.5 mph5.6 kmh 29.67 in1004.7 mb - 0.00 in0.0 mm 0.00 in0.0 mm
02:35 AM 38.1°F3.4°C 22.9°F-5.1°C 54% 2.3 mph NNW3.7 kmh NNW 3.5 mph5.6 kmh 29.67 in1004.7 mb - 0.00 in0.0 mm 0.00 in0.0 mm
02:40 AM 38.1°F3.4°C 22.9°F-5.1°C 54% 2.3 mph NNW3.7 kmh NNW 2.3 mph3.7 kmh 29.67 in1004.7 mb - 0.00 in0.0 mm 0.00 in0.0 mm
02:45 AM 38.3°F3.5°C 23.1°F-4.9°C 54% 2.3 mph NNW3.7 kmh NNW 2.3 mph3.7 kmh 29.66 in1004.4 mb - 0.00 in0.0 mm 0.00 in0.0 mm
02:50 AM 38.2°F3.4°C 23.0°F-5.0°C 54% 2.3 mph NNW3.7 kmh NNW 3.5 mph5.6 kmh 29.66 in1004.4 mb - 0.00 in0.0 mm 0.00 in0.0 mm
02:55 AM 37.9°F3.3°C 22.8°F-5.1°C 54% 2.3 mph NNW3.7 kmh NNW 2.3 mph3.7 kmh 29.66 in1004.4 mb - 0.00 in0.0 mm 0.00 in0.0 mm
03:00 AM 38.1°F3.4°C 22.9°F-5.1°C 54% 2.3 mph NNW3.7 kmh NNW 2.3 mph3.7 kmh 29.66 in1004.4 mb - 0.00 in0.0 mm 0.00 in0.0 mm
03:10 AM 41.9°F5.5°C 26.9°F-2.8°C 55% 3.5 mph NNE5.6 kmh NNE 3.5 mph5.6 kmh 29.66 in1004.4 mb - 0.00 in0.0 mm 0.00 in0.0 mm
03:15 AM 42.8°F6.0°C 27.3°F-2.6°C 54% 2.3 mph 3.7 kmh 2.3 mph3.7 kmh 29.66 in1004.4 mb - 0.00 in0.0 mm 0.00 in0.0 mm
03:20 AM 42.9°F6.1°C 27.4°F-2.6°C 54% 2.3 mph NNW3.7 kmh NNW 3.5 mph5.6 kmh 29.66 in1004.4 mb - 0.00 in0.0 mm 0.00 in0.0 mm
03:25 AM 43.3°F6.3°C 27.8°F-2.3°C 54% 3.5 mph N5.6 kmh N 3.5 mph5.6 kmh 29.66 in1004.4 mb - 0.00 in0.0 mm 0.00 in0.0 mm
03:30 AM 43.7°F6.5°C 27.7°F-2.4°C 53% 1.2 mph NNW1.9 kmh NNW 1.2 mph1.9 kmh 29.67 in1004.7 mb - 0.00 in0.0 mm 0.00 in0.0 mm
03:35 AM 43.7°F6.5°C 27.7°F-2.4°C 53% 3.5 mph NNW5.6 kmh NNW 4.6 mph7.4 kmh 29.67 in1004.7 mb - 0.00 in0.0 mm 0.00 in0.0 mm
03:40 AM 44.1°F6.7°C 28.0°F-2.2°C 53% 2.3 mph N3.7 kmh N 3.5 mph5.6 kmh 29.67 in1004.7 mb - 0.00 in0.0 mm 0.00 in0.0 mm
03:45 AM 44.1°F6.7°C 28.0°F-2.2°C 53% 3.5 mph N5.6 kmh N 3.5 mph5.6 kmh 29.67 in1004.7 mb - 0.00 in0.0 mm 0.00 in0.0 mm
03:50 AM 44.1°F6.7°C 28.0°F-2.2°C 53% 3.5 mph NNW5.6 kmh NNW 3.5 mph5.6 kmh 29.67 in1004.7 mb - 0.00 in0.0 mm 0.00 in0.0 mm
03:55 AM 44.2°F6.8°C 28.2°F-2.1°C 53% 3.5 mph NNW5.6 kmh NNW 3.5 mph5.6 kmh 29.67 in1004.7 mb - 0.00 in0.0 mm 0.00 in0.0 mm
04:00 AM 44.3°F6.8°C 28.2°F-2.1°C 53% 3.5 mph NE5.6 kmh NE 4.6 mph7.4 kmh 29.67 in1004.7 mb - 0.00 in0.0 mm 0.00 in0.0 mm
04:10 AM 44.2°F6.8°C 28.2°F-2.1°C 53% 3.5 mph N5.6 kmh N 3.5 mph5.6 kmh 29.67 in1004.7 mb - 0.00 in0.0 mm 0.00 in0.0 mm
04:15 AM 44.1°F6.7°C 27.5°F-2.5°C 52% 3.5 mph NE5.6 kmh NE 4.6 mph7.4 kmh 29.67 in1004.7 mb - 0.00 in0.0 mm 0.00 in0.0 mm
04:20 AM 44.1°F6.7°C 28.0°F-2.2°C 53% 3.5 mph NNE5.6 kmh NNE 4.6 mph7.4 kmh 29.67 in1004.7 mb - 0.00 in0.0 mm 0.00 in0.0 mm
04:25 AM 44.1°F6.7°C 27.5°F-2.5°C 52% 2.3 mph NE3.7 kmh NE 3.5 mph5.6 kmh 29.67 in1004.7 mb - 0.00 in0.0 mm 0.00 in0.0 mm
04:30 AM 44.0°F6.7°C 27.5°F-2.5°C 52% 2.3 mph NNW3.7 kmh NNW 3.5 mph5.6 kmh 29.68 in1005.1 mb - 0.00 in0.0 mm 0.00 in0.0 mm
04:35 AM 44.1°F6.7°C 27.1°F-2.7°C 51% 3.5 mph NNE5.6 kmh NNE 3.5 mph5.6 kmh 29.68 in1005.1 mb - 0.00 in0.0 mm 0.00 in0.0 mm
04:40 AM 44.1°F6.7°C 27.1°F-2.7°C 51% 3.5 mph NNE5.6 kmh NNE 3.5 mph5.6 kmh 29.68 in1005.1 mb - 0.00 in0.0 mm 0.00 in0.0 mm
04:45 AM 44.1°F6.7°C 27.1°F-2.7°C 51% 3.5 mph N5.6 kmh N 5.8 mph9.3 kmh 29.68 in1005.1 mb - 0.00 in0.0 mm 0.00 in0.0 mm
04:50 AM 44.2°F6.8°C 27.2°F-2.7°C 51% 3.5 mph NNE5.6 kmh NNE 3.5 mph5.6 kmh 29.68 in1005.1 mb - 0.00 in0.0 mm 0.00 in0.0 mm
04:55 AM 44.2°F6.8°C 26.8°F-2.9°C 50% 4.6 mph NNE7.4 kmh NNE 4.6 mph7.4 kmh 29.68 in1005.1 mb - 0.00 in0.0 mm 0.00 in0.0 mm
05:00 AM 44.3°F6.8°C 26.8°F-2.9°C 50% 4.6 mph NNE7.4 kmh NNE 4.6 mph7.4 kmh 29.68 in1005.1 mb - 0.00 in0.0 mm 0.00 in0.0 mm
05:10 AM 44.4°F6.9°C 26.4°F-3.1°C 49% 4.6 mph NE7.4 kmh NE 4.6 mph7.4 kmh 29.68 in1005.1 mb - 0.00 in0.0 mm 0.00 in0.0 mm
05:15 AM 44.4°F6.9°C 26.4°F-3.1°C 49% 3.5 mph NNE5.6 kmh NNE 4.6 mph7.4 kmh 29.68 in1005.1 mb - 0.00 in0.0 mm 0.00 in0.0 mm
05:20 AM 44.5°F6.9°C 26.5°F-3.1°C 49% 3.5 mph NE5.6 kmh NE 4.6 mph7.4 kmh 29.68 in1005.1 mb - 0.00 in0.0 mm 0.00 in0.0 mm
05:25 AM 44.6°F7.0°C 26.6°F-3.0°C 49% 3.5 mph ENE5.6 kmh ENE 3.5 mph5.6 kmh 29.68 in1005.1 mb - 0.00 in0.0 mm 0.00 in0.0 mm
05:30 AM 44.6°F7.0°C 26.6°F-3.0°C 49% 3.5 mph NE5.6 kmh NE 3.5 mph5.6 kmh 29.69 in1005.4 mb - 0.00 in0.0 mm 0.00 in0.0 mm
05:35 AM 44.6°F7.0°C 26.6°F-3.0°C 49% 4.6 mph NE7.4 kmh NE 5.8 mph9.3 kmh 29.69 in1005.4 mb - 0.00 in0.0 mm 0.00 in0.0 mm
05:40 AM 44.8°F7.1°C 26.8°F-2.9°C 49% 3.5 mph ENE5.6 kmh ENE 5.8 mph9.3 kmh 29.69 in1005.4 mb - 0.00 in0.0 mm 0.00 in0.0 mm
05:45 AM 44.8°F7.1°C 26.8°F-2.9°C 49% 3.5 mph NE5.6 kmh NE 4.6 mph7.4 kmh 29.70 in1005.8 mb - 0.00 in0.0 mm 0.00 in0.0 mm
05:50 AM 44.8°F7.1°C 26.8°F-2.9°C 49% 3.5 mph NE5.6 kmh NE 3.5 mph5.6 kmh 29.70 in1005.8 mb - 0.00 in0.0 mm 0.00 in0.0 mm
05:55 AM 45.0°F7.2°C 27.5°F-2.5°C 50% 4.6 mph NE7.4 kmh NE 5.8 mph9.3 kmh 29.70 in1005.8 mb - 0.00 in0.0 mm 0.00 in0.0 mm
06:00 AM 45.3°F7.4°C 27.8°F-2.3°C 50% 4.6 mph ENE7.4 kmh ENE 5.8 mph9.3 kmh 29.70 in1005.8 mb - 0.00 in0.0 mm 0.00 in0.0 mm
06:10 AM 46.0°F7.8°C 28.9°F-1.7°C 51% 4.6 mph NNE7.4 kmh NNE 8.1 mph13.0 kmh 29.70 in1005.8 mb - 0.00 in0.0 mm 0.00 in0.0 mm
06:15 AM 46.4°F8.0°C 28.7°F-1.8°C 50% 4.6 mph NE7.4 kmh NE 5.8 mph9.3 kmh 29.71 in1006.1 mb - 0.00 in0.0 mm 0.00 in0.0 mm
06:20 AM 46.9°F8.3°C 29.2°F-1.6°C 50% 4.6 mph ENE7.4 kmh ENE 4.6 mph7.4 kmh 29.71 in1006.1 mb - 0.00 in0.0 mm 0.00 in0.0 mm
06:25 AM 47.2°F8.4°C 30.0°F-1.1°C 51% 4.6 mph ENE7.4 kmh ENE 4.6 mph7.4 kmh 29.71 in1006.1 mb - 0.00 in0.0 mm 0.00 in0.0 mm
06:30 AM 47.5°F8.6°C 30.2°F-1.0°C 51% 4.6 mph NE7.4 kmh NE 5.8 mph9.3 kmh 29.71 in1006.1 mb - 0.00 in0.0 mm 0.00 in0.0 mm
06:35 AM 48.0°F8.9°C 30.7°F-0.7°C 51% 4.6 mph NNE7.4 kmh NNE 5.8 mph9.3 kmh 29.71 in1006.1 mb - 0.00 in0.0 mm 0.00 in0.0 mm
06:40 AM 48.4°F9.1°C 31.1°F-0.5°C 51% 5.8 mph NE9.3 kmh NE 5.8 mph9.3 kmh 29.71 in1006.1 mb - 0.00 in0.0 mm 0.00 in0.0 mm
06:45 AM 48.9°F9.4°C 32.0°F0.0°C 52% 5.8 mph NE9.3 kmh NE 8.1 mph13.0 kmh 29.71 in1006.1 mb - 0.00 in0.0 mm 0.00 in0.0 mm
06:50 AM 49.3°F9.6°C 32.4°F0.2°C 52% 6.9 mph ENE11.1 kmh ENE 8.1 mph13.0 kmh 29.71 in1006.1 mb - 0.00 in0.0 mm 0.00 in0.0 mm
06:55 AM 49.9°F9.9°C 32.9°F0.5°C 52% 5.8 mph ENE9.3 kmh ENE 5.8 mph9.3 kmh 29.71 in1006.1 mb - 0.00 in0.0 mm 0.00 in0.0 mm
07:00 AM 50.2°F10.1°C 33.2°F0.7°C 52% 6.9 mph ENE11.1 kmh ENE 8.1 mph13.0 kmh 29.71 in1006.1 mb - 0.00 in0.0 mm 0.00 in0.0 mm
07:10 AM 51.3°F10.7°C 34.7°F1.5°C 53% 5.8 mph NE9.3 kmh NE 6.9 mph11.1 kmh 29.71 in1006.1 mb - 0.00 in0.0 mm 0.00 in0.0 mm
07:15 AM 51.4°F10.8°C 34.9°F1.6°C 53% 6.9 mph NE11.1 kmh NE 8.1 mph13.0 kmh 29.72 in1006.4 mb - 0.00 in0.0 mm 0.00 in0.0 mm
07:20 AM 52.0°F11.1°C 34.9°F1.6°C 52% 6.9 mph ENE11.1 kmh ENE 8.1 mph13.0 kmh 29.72 in1006.4 mb - 0.00 in0.0 mm 0.00 in0.0 mm
07:25 AM 52.4°F11.3°C 35.3°F1.8°C 52% 6.9 mph NE11.1 kmh NE 9.2 mph14.8 kmh 29.72 in1006.4 mb - 0.00 in0.0 mm 0.00 in0.0 mm
07:30 AM 52.7°F11.5°C 35.6°F2.0°C 52% 5.8 mph ENE9.3 kmh ENE 8.1 mph13.0 kmh 29.71 in1006.1 mb - 0.00 in0.0 mm 0.00 in0.0 mm
07:35 AM 53.1°F11.7°C 35.9°F2.2°C 52% 6.9 mph ENE11.1 kmh ENE 8.1 mph13.0 kmh 29.71 in1006.1 mb - 0.00 in0.0 mm 0.00 in0.0 mm
07:40 AM 53.6°F12.0°C 35.9°F2.2°C 51% 5.8 mph N9.3 kmh N 6.9 mph11.1 kmh 29.71 in1006.1 mb - 0.00 in0.0 mm 0.00 in0.0 mm
07:45 AM 54.1°F12.3°C 36.3°F2.4°C 51% 5.8 mph NNE9.3 kmh NNE 9.2 mph14.8 kmh 29.72 in1006.4 mb - 0.00 in0.0 mm 0.00 in0.0 mm
07:50 AM 54.7°F12.6°C 36.9°F2.7°C 51% 8.1 mph E13.0 kmh E 10.4 mph16.7 kmh 29.72 in1006.4 mb - 0.00 in0.0 mm 0.00 in0.0 mm
07:55 AM 54.7°F12.6°C 36.9°F2.7°C 51% 9.2 mph ENE14.8 kmh ENE 8.1 mph13.0 kmh 29.72 in1006.4 mb - 0.00 in0.0 mm 0.00 in0.0 mm
08:00 AM 55.0°F12.8°C 37.2°F2.9°C 51% 5.8 mph ENE9.3 kmh ENE 9.2 mph14.8 kmh 29.71 in1006.1 mb - 0.00 in0.0 mm 0.00 in0.0 mm
08:10 AM 56.3°F13.5°C 37.9°F3.3°C 50% 4.6 mph NE7.4 kmh NE 8.1 mph13.0 kmh 29.71 in1006.1 mb - 0.00 in0.0 mm 0.00 in0.0 mm
08:15 AM 56.3°F13.5°C 37.9°F3.3°C 50% 10.4 mph ENE16.7 kmh ENE 8.1 mph13.0 kmh 29.72 in1006.4 mb - 0.00 in0.0 mm 0.00 in0.0 mm
08:20 AM 56.7°F13.7°C 38.3°F3.5°C 50% 5.8 mph E9.3 kmh E 9.2 mph14.8 kmh 29.72 in1006.4 mb - 0.00 in0.0 mm 0.00 in0.0 mm
08:25 AM 57.0°F13.9°C 38.0°F3.3°C 49% 8.1 mph NE13.0 kmh NE 9.2 mph14.8 kmh 29.72 in1006.4 mb - 0.00 in0.0 mm 0.00 in0.0 mm
08:30 AM 57.4°F14.1°C 38.4°F3.6°C 49% 8.1 mph E13.0 kmh E 11.5 mph18.5 kmh 29.72 in1006.4 mb - 0.00 in0.0 mm 0.00 in0.0 mm
08:35 AM 57.7°F14.3°C 38.7°F3.7°C 49% 8.1 mph NNE13.0 kmh NNE 12.7 mph20.4 kmh 29.72 in1006.4 mb - 0.00 in0.0 mm 0.00 in0.0 mm
08:40 AM 57.9°F14.4°C 38.9°F3.8°C 49% 5.8 mph ENE9.3 kmh ENE 8.1 mph13.0 kmh 29.72 in1006.4 mb - 0.00 in0.0 mm 0.00 in0.0 mm
08:45 AM 58.5°F14.7°C 38.8°F3.8°C 48% 9.2 mph NNE14.8 kmh NNE 12.7 mph20.4 kmh 29.72 in1006.4 mb - 0.00 in0.0 mm 0.00 in0.0 mm
08:50 AM 58.5°F14.7°C 38.9°F3.8°C 48% 6.9 mph ENE11.1 kmh ENE 9.2 mph14.8 kmh 29.72 in1006.4 mb - 0.00 in0.0 mm 0.00 in0.0 mm
08:55 AM 58.5°F14.7°C 38.3°F3.5°C 47% 6.9 mph NNE11.1 kmh NNE 8.1 mph13.0 kmh 29.72 in1006.4 mb - 0.00 in0.0 mm 0.00 in0.0 mm
09:00 AM 59.2°F15.1°C 38.4°F3.6°C 46% 8.1 mph NE13.0 kmh NE 10.4 mph16.7 kmh 29.72 in1006.4 mb - 0.00 in0.0 mm 0.00 in0.0 mm
09:10 AM 60.1°F15.6°C 38.6°F3.7°C 45% 8.1 mph NNE13.0 kmh NNE 11.5 mph18.5 kmh 29.72 in1006.4 mb - 0.00 in0.0 mm 0.00 in0.0 mm
09:15 AM 60.1°F15.6°C 38.7°F3.7°C 45% 8.1 mph E13.0 kmh E 9.2 mph14.8 kmh 29.72 in1006.4 mb - 0.00 in0.0 mm 0.00 in0.0 mm
09:20 AM 60.5°F15.8°C 39.1°F3.9°C 45% 8.1 mph ENE13.0 kmh ENE 10.4 mph16.7 kmh 29.72 in1006.4 mb - 0.00 in0.0 mm 0.00 in0.0 mm
09:25 AM 60.8°F16.0°C 39.4°F4.1°C 45% 6.9 mph ENE11.1 kmh ENE 6.9 mph11.1 kmh 29.72 in1006.4 mb - 0.00 in0.0 mm 0.00 in0.0 mm
09:30 AM 61.5°F16.4°C 39.4°F4.1°C 44% 6.9 mph E11.1 kmh E 8.1 mph13.0 kmh 29.73 in1006.8 mb - 0.00 in0.0 mm 0.00 in0.0 mm
09:35 AM 61.9°F16.6°C 39.7°F4.3°C 44% 5.8 mph NE9.3 kmh NE 5.8 mph9.3 kmh 29.73 in1006.8 mb - 0.00 in0.0 mm 0.00 in0.0 mm
09:40 AM 62.2°F16.8°C 39.5°F4.2°C 43% 8.1 mph NE13.0 kmh NE 4.6 mph7.4 kmh 29.73 in1006.8 mb - 0.00 in0.0 mm 0.00 in0.0 mm
09:45 AM 61.9°F16.6°C 39.1°F3.9°C 43% 8.1 mph ENE13.0 kmh ENE 10.4 mph16.7 kmh 29.73 in1006.8 mb - 0.00 in0.0 mm 0.00 in0.0 mm
09:50 AM 61.9°F16.6°C 38.6°F3.7°C 42% 6.9 mph ENE11.1 kmh ENE 9.2 mph14.8 kmh 29.73 in1006.8 mb - 0.00 in0.0 mm 0.00 in0.0 mm
09:55 AM 62.4°F16.9°C 39.0°F3.9°C 42% 8.1 mph NNE13.0 kmh NNE 10.4 mph16.7 kmh 29.73 in1006.8 mb - 0.00 in0.0 mm 0.00 in0.0 mm
10:00 AM 62.4°F16.9°C 38.4°F3.6°C 41% 8.1 mph ENE13.0 kmh ENE 8.1 mph13.0 kmh 29.73 in1006.8 mb - 0.00 in0.0 mm 0.00 in0.0 mm
10:10 AM 63.3°F17.4°C 39.2°F4.0°C 41% 6.9 mph NE11.1 kmh NE 6.9 mph11.1 kmh 29.73 in1006.8 mb - 0.00 in0.0 mm 0.00 in0.0 mm
10:15 AM 63.5°F17.5°C 39.4°F4.1°C 41% 8.1 mph ENE13.0 kmh ENE 10.4 mph16.7 kmh 29.72 in1006.4 mb - 0.00 in0.0 mm 0.00 in0.0 mm
10:20 AM 63.5°F17.5°C 39.4°F4.1°C 41% 6.9 mph ENE11.1 kmh ENE 8.1 mph13.0 kmh 29.72 in1006.4 mb - 0.00 in0.0 mm 0.00 in0.0 mm
10:25 AM 63.3°F17.4°C 38.6°F3.7°C 40% 8.1 mph NNE13.0 kmh NNE 9.2 mph14.8 kmh 29.72 in1006.4 mb - 0.00 in0.0 mm 0.00 in0.0 mm
10:30 AM 64.0°F17.8°C 39.8°F4.3°C 41% 4.6 mph NNE7.4 kmh NNE 8.1 mph13.0 kmh 29.72 in1006.4 mb - 0.00 in0.0 mm 0.00 in0.0 mm
10:35 AM 64.6°F18.1°C 39.0°F3.9°C 39% 5.8 mph SE9.3 kmh SE 4.6 mph7.4 kmh 29.72 in1006.4 mb - 0.00 in0.0 mm 0.00 in0.0 mm
10:40 AM 65.1°F18.4°C 39.5°F4.2°C 39% 6.9 mph NE11.1 kmh NE 9.2 mph14.8 kmh 29.72 in1006.4 mb - 0.00 in0.0 mm 0.00 in0.0 mm
10:45 AM 64.7°F18.2°C 37.8°F3.2°C 37% 8.1 mph NNE13.0 kmh NNE 10.4 mph16.7 kmh 29.72 in1006.4 mb - 0.00 in0.0 mm 0.00 in0.0 mm
10:50 AM 64.6°F18.1°C 38.4°F3.6°C 38% 6.9 mph NE11.1 kmh NE 11.5 mph18.5 kmh 29.72 in1006.4 mb - 0.00 in0.0 mm 0.00 in0.0 mm
10:55 AM 65.5°F18.6°C 39.2°F4.0°C 38% 5.8 mph NNE9.3 kmh NNE 4.6 mph7.4 kmh 29.72 in1006.4 mb - 0.00 in0.0 mm 0.00 in0.0 mm
11:00 AM 65.5°F18.6°C 38.5°F3.6°C 37% 8.1 mph NE13.0 kmh NE 11.5 mph18.5 kmh 29.71 in1006.1 mb - 0.00 in0.0 mm 0.00 in0.0 mm
11:10 AM 65.7°F18.7°C 38.7°F3.7°C 37% 8.1 mph NE13.0 kmh NE 11.5 mph18.5 kmh 29.71 in1006.1 mb - 0.00 in0.0 mm 0.00 in0.0 mm
11:15 AM 65.7°F18.7°C 38.0°F3.3°C 36% 5.8 mph NE9.3 kmh NE 10.4 mph16.7 kmh 29.71 in1006.1 mb - 0.00 in0.0 mm 0.00 in0.0 mm
11:20 AM 66.3°F19.1°C 37.8°F3.2°C 35% 5.8 mph NNE9.3 kmh NNE 10.4 mph16.7 kmh 29.71 in1006.1 mb - 0.00 in0.0 mm 0.00 in0.0 mm
11:25 AM 66.6°F19.2°C 38.8°F3.8°C 36% 6.9 mph NNE11.1 kmh NNE 8.1 mph13.0 kmh 29.71 in1006.1 mb - 0.00 in0.0 mm 0.00 in0.0 mm
11:30 AM 66.6°F19.2°C 38.0°F3.3°C 35% 8.1 mph NE13.0 kmh NE 8.1 mph13.0 kmh 29.71 in1006.1 mb - 0.00 in0.0 mm 0.00 in0.0 mm
11:35 AM 66.9°F19.4°C 38.4°F3.6°C 35% 5.8 mph N9.3 kmh N 10.4 mph16.7 kmh 29.71 in1006.1 mb - 0.00 in0.0 mm 0.00 in0.0 mm
11:40 AM 66.7°F19.3°C 38.2°F3.4°C 35% 6.9 mph ENE11.1 kmh ENE 11.5 mph18.5 kmh 29.71 in1006.1 mb - 0.00 in0.0 mm 0.00 in0.0 mm
11:45 AM 66.9°F19.4°C 38.4°F3.6°C 35% 4.6 mph NE7.4 kmh NE 8.1 mph13.0 kmh 29.71 in1006.1 mb - 0.00 in0.0 mm 0.00 in0.0 mm
11:50 AM 66.9°F19.4°C 37.6°F3.1°C 34% 6.9 mph NNE11.1 kmh NNE 9.2 mph14.8 kmh 29.71 in1006.1 mb - 0.00 in0.0 mm 0.00 in0.0 mm
11:55 AM 67.3°F19.6°C 37.2°F2.9°C 33% 9.2 mph ENE14.8 kmh ENE 12.7 mph20.4 kmh 29.71 in1006.1 mb - 0.00 in0.0 mm 0.00 in0.0 mm
12:00 PM 67.1°F19.5°C 37.8°F3.2°C 34% 10.4 mph NE16.7 kmh NE 11.5 mph18.5 kmh 29.71 in1006.1 mb - 0.00 in0.0 mm 0.00 in0.0 mm
12:10 PM 67.8°F19.9°C 37.6°F3.1°C 33% 8.1 mph NNE13.0 kmh NNE 10.4 mph16.7 kmh 29.71 in1006.1 mb - 0.00 in0.0 mm 0.00 in0.0 mm
12:15 PM 67.0°F19.4°C 37.7°F3.2°C 34% 10.4 mph NNE16.7 kmh NNE 12.7 mph20.4 kmh 29.71 in1006.1 mb - 0.00 in0.0 mm 0.00 in0.0 mm
12:20 PM 67.8°F19.9°C 37.6°F3.1°C 33% 10.4 mph NE16.7 kmh NE 12.7 mph20.4 kmh 29.71 in1006.1 mb - 0.00 in0.0 mm 0.00 in0.0 mm
12:25 PM 68.0°F20.0°C 37.0°F2.8°C 32% 5.8 mph NE9.3 kmh NE 6.9 mph11.1 kmh 29.71 in1006.1 mb - 0.00 in0.0 mm 0.00 in0.0 mm
12:30 PM 67.8°F19.9°C 37.6°F3.1°C 33% 5.8 mph NE9.3 kmh NE 6.9 mph11.1 kmh 29.70 in1005.8 mb - 0.00 in0.0 mm 0.00 in0.0 mm
12:35 PM 68.5°F20.3°C 37.5°F3.1°C 32% 6.9 mph N11.1 kmh N 8.1 mph13.0 kmh 29.70 in1005.8 mb - 0.00 in0.0 mm 0.00 in0.0 mm
12:40 PM 68.6°F20.3°C 37.6°F3.1°C 32% 10.4 mph E16.7 kmh E 10.4 mph16.7 kmh 29.70 in1005.8 mb - 0.00 in0.0 mm 0.00 in0.0 mm
12:45 PM 68.9°F20.5°C 37.8°F3.2°C 32% 6.9 mph N11.1 kmh N 10.4 mph16.7 kmh 29.69 in1005.4 mb - 0.00 in0.0 mm 0.00 in0.0 mm
12:50 PM 68.9°F20.5°C 37.8°F3.2°C 32% 6.9 mph NNE11.1 kmh NNE 8.1 mph13.0 kmh 29.69 in1005.4 mb - 0.00 in0.0 mm 0.00 in0.0 mm
12:55 PM 68.7°F20.4°C 36.8°F2.7°C 31% 8.1 mph ENE13.0 kmh ENE 8.1 mph13.0 kmh 29.69 in1005.4 mb - 0.00 in0.0 mm 0.00 in0.0 mm
01:00 PM 68.7°F20.4°C 36.8°F2.7°C 31% 8.1 mph NE13.0 kmh NE 11.5 mph18.5 kmh 29.69 in1005.4 mb - 0.00 in0.0 mm 0.00 in0.0 mm
01:10 PM 69.0°F20.6°C 37.1°F2.8°C 31% 6.9 mph E11.1 kmh E 9.2 mph14.8 kmh 29.69 in1005.4 mb - 0.00 in0.0 mm 0.00 in0.0 mm
01:15 PM 69.3°F20.7°C 37.3°F2.9°C 31% 8.1 mph NE13.0 kmh NE 9.2 mph14.8 kmh 29.69 in1005.4 mb - 0.00 in0.0 mm 0.00 in0.0 mm
01:20 PM 69.3°F20.7°C 37.3°F2.9°C 31% 8.1 mph NE13.0 kmh NE 11.5 mph18.5 kmh 29.69 in1005.4 mb - 0.00 in0.0 mm 0.00 in0.0 mm
01:25 PM 68.9°F20.5°C 37.0°F2.8°C 31% 5.8 mph NE9.3 kmh NE 8.1 mph13.0 kmh 29.69 in1005.4 mb - 0.00 in0.0 mm 0.00 in0.0 mm
01:30 PM 69.3°F20.7°C 37.3°F2.9°C 31% 8.1 mph ENE13.0 kmh ENE 12.7 mph20.4 kmh 29.68 in1005.1 mb - 0.00 in0.0 mm 0.00 in0.0 mm
01:35 PM 69.4°F20.8°C 37.5°F3.1°C 31% 8.1 mph NNE13.0 kmh NNE 11.5 mph18.5 kmh 29.68 in1005.1 mb - 0.00 in0.0 mm 0.00 in0.0 mm
01:40 PM 68.9°F20.5°C 37.0°F2.8°C 31% 9.2 mph NNE14.8 kmh NNE 10.4 mph16.7 kmh 29.68 in1005.1 mb - 0.00 in0.0 mm 0.00 in0.0 mm
01:45 PM 69.4°F20.8°C 36.6°F2.6°C 30% 9.2 mph NE14.8 kmh NE 11.5 mph18.5 kmh 29.68 in1005.1 mb - 0.00 in0.0 mm 0.00 in0.0 mm
01:50 PM 69.5°F20.8°C 37.5°F3.1°C 31% 8.1 mph NNE13.0 kmh NNE 8.1 mph13.0 kmh 29.68 in1005.1 mb - 0.00 in0.0 mm 0.00 in0.0 mm
01:55 PM 69.4°F20.8°C 36.6°F2.6°C 30% 10.4 mph NE16.7 kmh NE 13.8 mph22.2 kmh 29.68 in1005.1 mb - 0.00 in0.0 mm 0.00 in0.0 mm
02:00 PM 69.6°F20.9°C 36.8°F2.7°C 30% 8.1 mph NNE13.0 kmh NNE 13.8 mph22.2 kmh 29.67 in1004.7 mb - 0.00 in0.0 mm 0.00 in0.0 mm
02:10 PM 70.3°F21.3°C 37.4°F3.0°C 30% 5.8 mph NNE9.3 kmh NNE 6.9 mph11.1 kmh 29.67 in1004.7 mb - 0.00 in0.0 mm 0.00 in0.0 mm
02:15 PM 69.8°F21.0°C 36.1°F2.3°C 29% 6.9 mph E11.1 kmh E 8.1 mph13.0 kmh 29.67 in1004.7 mb - 0.00 in0.0 mm 0.00 in0.0 mm
02:20 PM 70.1°F21.2°C 36.4°F2.4°C 29% 8.1 mph NE13.0 kmh NE 9.2 mph14.8 kmh 29.67 in1004.7 mb - 0.00 in0.0 mm 0.00 in0.0 mm
02:25 PM 70.0°F21.1°C 36.2°F2.3°C 29% 4.6 mph NE7.4 kmh NE 6.9 mph11.1 kmh 29.67 in1004.7 mb - 0.00 in0.0 mm 0.00 in0.0 mm
02:30 PM 70.0°F21.1°C 36.2°F2.3°C 29% 6.9 mph N11.1 kmh N 10.4 mph16.7 kmh 29.67 in1004.7 mb - 0.00 in0.0 mm 0.00 in0.0 mm
02:35 PM 70.0°F21.1°C 36.2°F2.3°C 29% 8.1 mph ENE13.0 kmh ENE 9.2 mph14.8 kmh 29.67 in1004.7 mb - 0.00 in0.0 mm 0.00 in0.0 mm
02:40 PM 69.9°F21.1°C 36.2°F2.3°C 29% 5.8 mph NE9.3 kmh NE 8.1 mph13.0 kmh 29.67 in1004.7 mb - 0.00 in0.0 mm 0.00 in0.0 mm
02:45 PM 69.9°F21.1°C 36.1°F2.3°C 29% 6.9 mph NE11.1 kmh NE 8.1 mph13.0 kmh 29.66 in1004.4 mb - 0.00 in0.0 mm 0.00 in0.0 mm
02:50 PM 69.8°F21.0°C 36.1°F2.3°C 29% 8.1 mph NNE13.0 kmh NNE 8.1 mph13.0 kmh 29.66 in1004.4 mb - 0.00 in0.0 mm 0.00 in0.0 mm
02:55 PM 69.8°F21.0°C 35.2°F1.8°C 28% 6.9 mph N11.1 kmh N 11.5 mph18.5 kmh 29.66 in1004.4 mb - 0.00 in0.0 mm 0.00 in0.0 mm
03:00 PM 69.6°F20.9°C 35.9°F2.2°C 29% 6.9 mph ENE11.1 kmh ENE 11.5 mph18.5 kmh 29.66 in1004.4 mb - 0.00 in0.0 mm 0.00 in0.0 mm
03:10 PM 69.9°F21.1°C 36.2°F2.3°C 29% 8.1 mph NNE13.0 kmh NNE 8.1 mph13.0 kmh 29.66 in1004.4 mb - 0.00 in0.0 mm 0.00 in0.0 mm
03:15 PM 69.8°F21.0°C 36.1°F2.3°C 29% 6.9 mph NE11.1 kmh NE 10.4 mph16.7 kmh 29.66 in1004.4 mb - 0.00 in0.0 mm 0.00 in0.0 mm
03:20 PM 69.4°F20.8°C 34.9°F1.6°C 28% 10.4 mph ENE16.7 kmh ENE 12.7 mph20.4 kmh 29.66 in1004.4 mb - 0.00 in0.0 mm 0.00 in0.0 mm
03:25 PM 69.4°F20.8°C 35.8°F2.1°C 29% 5.8 mph NE9.3 kmh NE 6.9 mph11.1 kmh 29.66 in1004.4 mb - 0.00 in0.0 mm 0.00 in0.0 mm
03:30 PM 69.4°F20.8°C 35.8°F2.1°C 29% 6.9 mph NNE11.1 kmh NNE 6.9 mph11.1 kmh 29.65 in1004.1 mb - 0.00 in0.0 mm 0.00 in0.0 mm
03:35 PM 69.3°F20.7°C 34.8°F1.6°C 28% 6.9 mph ENE11.1 kmh ENE 6.9 mph11.1 kmh 29.65 in1004.1 mb - 0.00 in0.0 mm 0.00 in0.0 mm
03:40 PM 69.2°F20.7°C 34.6°F1.4°C 28% 6.9 mph E11.1 kmh E 10.4 mph16.7 kmh 29.65 in1004.1 mb - 0.00 in0.0 mm 0.00 in0.0 mm
03:45 PM 69.2°F20.7°C 35.6°F2.0°C 29% 6.9 mph NE11.1 kmh NE 6.9 mph11.1 kmh 29.66 in1004.4 mb - 0.00 in0.0 mm 0.00 in0.0 mm
03:50 PM 69.1°F20.6°C 34.6°F1.4°C 28% 8.1 mph NNE13.0 kmh NNE 5.8 mph9.3 kmh 29.66 in1004.4 mb - 0.00 in0.0 mm 0.00 in0.0 mm
03:55 PM 69.1°F20.6°C 34.6°F1.4°C 28% 8.1 mph NNE13.0 kmh NNE 9.2 mph14.8 kmh 29.66 in1004.4 mb - 0.00 in0.0 mm 0.00 in0.0 mm
04:00 PM 68.7°F20.4°C 34.3°F1.3°C 28% 6.9 mph N11.1 kmh N 11.5 mph18.5 kmh 29.66 in1004.4 mb - 0.00 in0.0 mm 0.00 in0.0 mm
04:10 PM 68.5°F20.3°C 34.1°F1.2°C 28% 5.8 mph ENE9.3 kmh ENE 9.2 mph14.8 kmh 29.66 in1004.4 mb - 0.00 in0.0 mm 0.00 in0.0 mm
04:15 PM 68.4°F20.2°C 34.0°F1.1°C 28% 6.9 mph E11.1 kmh E 11.5 mph18.5 kmh 29.65 in1004.1 mb - 0.00 in0.0 mm 0.00 in0.0 mm
04:20 PM 68.0°F20.0°C 33.7°F0.9°C 28% 6.9 mph N11.1 kmh N 9.2 mph14.8 kmh 29.65 in1004.1 mb - 0.00 in0.0 mm 0.00 in0.0 mm
04:25 PM 68.0°F20.0°C 34.5°F1.4°C 29% 6.9 mph NE11.1 kmh NE 4.6 mph7.4 kmh 29.65 in1004.1 mb - 0.00 in0.0 mm 0.00 in0.0 mm
04:30 PM 67.6°F19.8°C 34.2°F1.2°C 29% 9.2 mph NE14.8 kmh NE 9.2 mph14.8 kmh 29.66 in1004.4 mb - 0.00 in0.0 mm 0.00 in0.0 mm
04:35 PM 67.5°F19.7°C 34.1°F1.2°C 29% 6.9 mph NE11.1 kmh NE 8.1 mph13.0 kmh 29.66 in1004.4 mb - 0.00 in0.0 mm 0.00 in0.0 mm
04:40 PM 67.2°F19.6°C 33.8°F1.0°C 29% 8.1 mph NNE13.0 kmh NNE 9.2 mph14.8 kmh 29.66 in1004.4 mb - 0.00 in0.0 mm 0.00 in0.0 mm
04:45 PM 66.9°F19.4°C 33.6°F0.9°C 29% 8.1 mph N13.0 kmh N 8.1 mph13.0 kmh 29.65 in1004.1 mb - 0.00 in0.0 mm 0.00 in0.0 mm
04:50 PM 66.7°F19.3°C 34.3°F1.3°C 30% 3.5 mph ENE5.6 kmh ENE 3.5 mph5.6 kmh 29.65 in1004.1 mb - 0.00 in0.0 mm 0.00 in0.0 mm
04:55 PM 66.7°F19.3°C 34.3°F1.3°C 30% 4.6 mph NE7.4 kmh NE 4.6 mph7.4 kmh 29.65 in1004.1 mb - 0.00 in0.0 mm 0.00 in0.0 mm
05:00 PM 66.6°F19.2°C 34.1°F1.2°C 30% 5.8 mph NNE9.3 kmh NNE 5.8 mph9.3 kmh 29.65 in1004.1 mb - 0.00 in0.0 mm 0.00 in0.0 mm
05:10 PM 66.2°F19.0°C 33.8°F1.0°C 30% 5.8 mph NE9.3 kmh NE 6.9 mph11.1 kmh 29.65 in1004.1 mb - 0.00 in0.0 mm 0.00 in0.0 mm
05:15 PM 65.7°F18.7°C 33.4°F0.8°C 30% 6.9 mph E11.1 kmh E 8.1 mph13.0 kmh 29.66 in1004.4 mb - 0.00 in0.0 mm 0.00 in0.0 mm
05:20 PM 65.5°F18.6°C 33.2°F0.7°C 30% 6.9 mph N11.1 kmh N 9.2 mph14.8 kmh 29.66 in1004.4 mb - 0.00 in0.0 mm 0.00 in0.0 mm
05:25 PM 65.1°F18.4°C 32.9°F0.5°C 30% 6.9 mph NE11.1 kmh NE 8.1 mph13.0 kmh 29.66 in1004.4 mb - 0.00 in0.0 mm 0.00 in0.0 mm
05:30 PM 64.9°F18.3°C 32.7°F0.4°C 30% 6.9 mph E11.1 kmh E 10.4 mph16.7 kmh 29.66 in1004.4 mb - 0.00 in0.0 mm 0.00 in0.0 mm
05:35 PM 64.6°F18.1°C 32.4°F0.2°C 30% 5.8 mph NE9.3 kmh NE 10.4 mph16.7 kmh 29.66 in1004.4 mb - 0.00 in0.0 mm 0.00 in0.0 mm
05:40 PM 64.4°F18.0°C 32.3°F0.2°C 30% 4.6 mph NE7.4 kmh NE 4.6 mph7.4 kmh 29.66 in1004.4 mb - 0.00 in0.0 mm 0.00 in0.0 mm
05:45 PM 64.0°F17.8°C 32.8°F0.4°C 31% 6.9 mph NE11.1 kmh NE 9.2 mph14.8 kmh 29.67 in1004.7 mb - 0.00 in0.0 mm 0.00 in0.0 mm
05:50 PM 63.7°F17.6°C 32.5°F0.3°C 31% 6.9 mph NE11.1 kmh NE 6.9 mph11.1 kmh 29.67 in1004.7 mb - 0.00 in0.0 mm 0.00 in0.0 mm
05:55 PM 63.3°F17.4°C 32.1°F0.1°C 31% 4.6 mph NE7.4 kmh NE 5.8 mph9.3 kmh 29.67 in1004.7 mb - 0.00 in0.0 mm 0.00 in0.0 mm
06:00 PM 62.8°F17.1°C 31.7°F-0.2°C 31% 4.6 mph NE7.4 kmh NE 5.8 mph9.3 kmh 29.67 in1004.7 mb - 0.00 in0.0 mm 0.00 in0.0 mm
06:10 PM 62.1°F16.7°C 31.0°F-0.6°C 31% 3.5 mph NNE5.6 kmh NNE 4.6 mph7.4 kmh 29.67 in1004.7 mb - 0.00 in0.0 mm 0.00 in0.0 mm
06:15 PM 61.7°F16.5°C 30.7°F-0.7°C 31% 3.5 mph NE5.6 kmh NE 4.6 mph7.4 kmh 29.68 in1005.1 mb - 0.00 in0.0 mm 0.00 in0.0 mm
06:20 PM 61.3°F16.3°C 30.4°F-0.9°C 31% 3.5 mph NNE5.6 kmh NNE 3.5 mph5.6 kmh 29.68 in1005.1 mb - 0.00 in0.0 mm 0.00 in0.0 mm
06:25 PM 61.2°F16.2°C 30.3°F-0.9°C 31% 4.6 mph ENE7.4 kmh ENE 6.9 mph11.1 kmh 29.68 in1005.1 mb - 0.00 in0.0 mm 0.00 in0.0 mm
06:30 PM 60.8°F16.0°C 30.0°F-1.1°C 31% 3.5 mph NNE5.6 kmh NNE 4.6 mph7.4 kmh 29.67 in1004.7 mb - 0.00 in0.0 mm 0.00 in0.0 mm
06:35 PM 60.6°F15.9°C 29.8°F-1.2°C 31% 5.8 mph ENE9.3 kmh ENE 6.9 mph11.1 kmh 29.67 in1004.7 mb - 0.00 in0.0 mm 0.00 in0.0 mm
06:40 PM 60.4°F15.8°C 29.6°F-1.3°C 31% 4.6 mph NE7.4 kmh NE 5.8 mph9.3 kmh 29.67 in1004.7 mb - 0.00 in0.0 mm 0.00 in0.0 mm
06:45 PM 60.1°F15.6°C 29.3°F-1.5°C 31% 3.5 mph NNE5.6 kmh NNE 5.8 mph9.3 kmh 29.68 in1005.1 mb - 0.00 in0.0 mm 0.00 in0.0 mm
06:50 PM 59.7°F15.4°C 29.0°F-1.7°C 31% 8.1 mph NE13.0 kmh NE 10.4 mph16.7 kmh 29.68 in1005.1 mb - 0.00 in0.0 mm 0.00 in0.0 mm
06:55 PM 59.5°F15.3°C 28.8°F-1.8°C 31% 4.6 mph NE7.4 kmh NE 9.2 mph14.8 kmh 29.68 in1005.1 mb - 0.00 in0.0 mm 0.00 in0.0 mm
07:00 PM 59.4°F15.2°C 28.7°F-1.8°C 31% 5.8 mph E9.3 kmh E 5.8 mph9.3 kmh 29.69 in1005.4 mb - 0.00 in0.0 mm 0.00 in0.0 mm
07:10 PM 58.9°F14.9°C 28.3°F-2.1°C 31% 4.6 mph NE7.4 kmh NE 5.8 mph9.3 kmh 29.69 in1005.4 mb - 0.00 in0.0 mm 0.00 in0.0 mm
07:15 PM 58.8°F14.9°C 29.0°F-1.7°C 32% 5.8 mph NNE9.3 kmh NNE 8.1 mph13.0 kmh 29.69 in1005.4 mb - 0.00 in0.0 mm 0.00 in0.0 mm
07:20 PM 58.5°F14.7°C 28.7°F-1.8°C 32% 5.8 mph NE9.3 kmh NE 6.9 mph11.1 kmh 29.69 in1005.4 mb - 0.00 in0.0 mm 0.00 in0.0 mm
07:25 PM 58.1°F14.5°C 28.4°F-2.0°C 32% 4.6 mph NNE7.4 kmh NNE 6.9 mph11.1 kmh 29.69 in1005.4 mb - 0.00 in0.0 mm 0.00 in0.0 mm
07:30 PM 57.9°F14.4°C 28.2°F-2.1°C 32% 5.8 mph NE9.3 kmh NE 6.9 mph11.1 kmh 29.70 in1005.8 mb - 0.00 in0.0 mm 0.00 in0.0 mm
07:35 PM 57.6°F14.2°C 28.0°F-2.2°C 32% 5.8 mph ENE9.3 kmh ENE 5.8 mph9.3 kmh 29.70 in1005.8 mb - 0.00 in0.0 mm 0.00 in0.0 mm
07:40 PM 57.2°F14.0°C 27.6°F-2.4°C 32% 4.6 mph ESE7.4 kmh ESE 6.9 mph11.1 kmh 29.70 in1005.8 mb - 0.00 in0.0 mm 0.00 in0.0 mm
07:45 PM 57.0°F13.9°C 28.2°F-2.1°C 33% 5.8 mph NE9.3 kmh NE 8.1 mph13.0 kmh 29.70 in1005.8 mb - 0.00 in0.0 mm 0.00 in0.0 mm
07:50 PM 56.8°F13.8°C 28.0°F-2.2°C 33% 5.8 mph NNE9.3 kmh NNE 8.1 mph13.0 kmh 29.70 in1005.8 mb - 0.00 in0.0 mm 0.00 in0.0 mm
07:55 PM 56.8°F13.8°C 28.0°F-2.2°C 33% 5.8 mph NE9.3 kmh NE 3.5 mph5.6 kmh 29.70 in1005.8 mb - 0.00 in0.0 mm 0.00 in0.0 mm
08:00 PM 56.5°F13.6°C 27.7°F-2.4°C 33% 4.6 mph NE7.4 kmh NE 4.6 mph7.4 kmh 29.71 in1006.1 mb - 0.00 in0.0 mm 0.00 in0.0 mm
08:10 PM 55.9°F13.3°C 27.2°F-2.7°C 33% 5.8 mph N9.3 kmh N 8.1 mph13.0 kmh 29.71 in1006.1 mb - 0.00 in0.0 mm 0.00 in0.0 mm
08:15 PM 55.6°F13.1°C 26.9°F-2.8°C 33% 4.6 mph NE7.4 kmh NE 6.9 mph11.1 kmh 29.71 in1006.1 mb - 0.00 in0.0 mm 0.00 in0.0 mm
08:20 PM 55.4°F13.0°C 26.7°F-2.9°C 33% 9.2 mph NNE14.8 kmh NNE 11.5 mph18.5 kmh 29.71 in1006.1 mb - 0.00 in0.0 mm 0.00 in0.0 mm
08:25 PM 55.4°F13.0°C 26.7°F-2.9°C 33% 4.6 mph NE7.4 kmh NE 5.8 mph9.3 kmh 29.71 in1006.1 mb - 0.00 in0.0 mm 0.00 in0.0 mm
08:30 PM 55.2°F12.9°C 26.6°F-3.0°C 33% 6.9 mph NE11.1 kmh NE 8.1 mph13.0 kmh 29.72 in1006.4 mb - 0.00 in0.0 mm 0.00 in0.0 mm
08:35 PM 55.2°F12.9°C 25.8°F-3.4°C 32% 6.9 mph ENE11.1 kmh ENE 6.9 mph11.1 kmh 29.72 in1006.4 mb - 0.00 in0.0 mm 0.00 in0.0 mm
08:40 PM 55.0°F12.8°C 25.6°F-3.6°C 32% 5.8 mph NE9.3 kmh NE 8.1 mph13.0 kmh 29.72 in1006.4 mb - 0.00 in0.0 mm 0.00 in0.0 mm
08:45 PM 54.7°F12.6°C 25.4°F-3.7°C 32% 3.5 mph NNE5.6 kmh NNE 3.5 mph5.6 kmh 29.72 in1006.4 mb - 0.00 in0.0 mm 0.00 in0.0 mm
08:50 PM 54.5°F12.5°C 25.2°F-3.8°C 32% 6.9 mph NNE11.1 kmh NNE 15.0 mph24.1 kmh 29.72 in1006.4 mb - 0.00 in0.0 mm 0.00 in0.0 mm
08:55 PM 54.3°F12.4°C 25.1°F-3.8°C 32% 3.5 mph ENE5.6 kmh ENE 6.9 mph11.1 kmh 29.72 in1006.4 mb - 0.00 in0.0 mm 0.00 in0.0 mm
09:00 PM 54.0°F12.2°C 24.8°F-4.0°C 32% 4.6 mph ENE7.4 kmh ENE 4.6 mph7.4 kmh 29.73 in1006.8 mb - 0.00 in0.0 mm 0.00 in0.0 mm
09:10 PM 53.6°F12.0°C 24.4°F-4.2°C 32% 4.6 mph NE7.4 kmh NE 4.6 mph7.4 kmh 29.73 in1006.8 mb - 0.00 in0.0 mm 0.00 in0.0 mm
09:15 PM 53.4°F11.9°C 25.0°F-3.9°C 33% 6.9 mph NNE11.1 kmh NNE 10.4 mph16.7 kmh 29.73 in1006.8 mb - 0.00 in0.0 mm 0.00 in0.0 mm
09:20 PM 53.2°F11.8°C 24.8°F-4.0°C 33% 8.1 mph NNE13.0 kmh NNE 8.1 mph13.0 kmh 29.73 in1006.8 mb - 0.00 in0.0 mm 0.00 in0.0 mm
09:25 PM 52.9°F11.6°C 24.5°F-4.2°C 33% 3.5 mph ENE5.6 kmh ENE 3.5 mph5.6 kmh 29.73 in1006.8 mb - 0.00 in0.0 mm 0.00 in0.0 mm
09:30 PM 52.7°F11.5°C 25.1°F-3.8°C 34% 5.8 mph NNE9.3 kmh NNE 5.8 mph9.3 kmh 29.73 in1006.8 mb - 0.00 in0.0 mm 0.00 in0.0 mm
09:35 PM 52.5°F11.4°C 24.2°F-4.3°C 33% 5.8 mph NNE9.3 kmh NNE 4.6 mph7.4 kmh 29.73 in1006.8 mb - 0.00 in0.0 mm 0.00 in0.0 mm
09:40 PM 52.5°F11.4°C 24.9°F-3.9°C 34% 5.8 mph NE9.3 kmh NE 6.9 mph11.1 kmh 29.73 in1006.8 mb - 0.00 in0.0 mm 0.00 in0.0 mm
09:45 PM 52.3°F11.3°C 24.0°F-4.4°C 33% 5.8 mph NNE9.3 kmh NNE 10.4 mph16.7 kmh 29.74 in1007.1 mb - 0.00 in0.0 mm 0.00 in0.0 mm
09:50 PM 52.2°F11.2°C 24.6°F-4.1°C 34% 5.8 mph ENE9.3 kmh ENE 6.9 mph11.1 kmh 29.74 in1007.1 mb - 0.00 in0.0 mm 0.00 in0.0 mm
09:55 PM 52.0°F11.1°C 23.7°F-4.6°C 33% 5.8 mph NE9.3 kmh NE 10.4 mph16.7 kmh 29.74 in1007.1 mb - 0.00 in0.0 mm 0.00 in0.0 mm
10:00 PM 52.0°F11.1°C 23.7°F-4.6°C 33% 6.9 mph NE11.1 kmh NE 8.1 mph13.0 kmh 29.74 in1007.1 mb - 0.00 in0.0 mm 0.00 in0.0 mm
10:10 PM 51.4°F10.8°C 23.3°F-4.8°C 33% 5.8 mph ENE9.3 kmh ENE 8.1 mph13.0 kmh 29.74 in1007.1 mb - 0.00 in0.0 mm 0.00 in0.0 mm
10:15 PM 51.3°F10.7°C 23.1°F-4.9°C 33% 8.1 mph ENE13.0 kmh ENE 10.4 mph16.7 kmh 29.74 in1007.1 mb - 0.00 in0.0 mm 0.00 in0.0 mm
10:20 PM 51.1°F10.6°C 22.9°F-5.1°C 33% 4.6 mph NE7.4 kmh NE 5.8 mph9.3 kmh 29.74 in1007.1 mb - 0.00 in0.0 mm 0.00 in0.0 mm
10:25 PM 51.1°F10.6°C 22.9°F-5.1°C 33% 5.8 mph E9.3 kmh E 8.1 mph13.0 kmh 29.74 in1007.1 mb - 0.00 in0.0 mm 0.00 in0.0 mm
10:30 PM 50.8°F10.4°C 22.7°F-5.2°C 33% 6.9 mph NE11.1 kmh NE 8.1 mph13.0 kmh 29.74 in1007.1 mb - 0.00 in0.0 mm 0.00 in0.0 mm
10:35 PM 50.6°F10.3°C 22.6°F-5.2°C 33% 5.8 mph NNE9.3 kmh NNE 11.5 mph18.5 kmh 29.74 in1007.1 mb - 0.00 in0.0 mm 0.00 in0.0 mm
10:40 PM 50.5°F10.3°C 22.4°F-5.3°C 33% 4.6 mph ENE7.4 kmh ENE 6.9 mph11.1 kmh 29.74 in1007.1 mb - 0.00 in0.0 mm 0.00 in0.0 mm
10:45 PM 50.4°F10.2°C 22.3°F-5.4°C 33% 4.6 mph ENE7.4 kmh ENE 6.9 mph11.1 kmh 29.75 in1007.5 mb - 0.00 in0.0 mm 0.00 in0.0 mm
10:50 PM 50.0°F10.0°C 22.0°F-5.6°C 33% 5.8 mph NNE9.3 kmh NNE 6.9 mph11.1 kmh 29.75 in1007.5 mb - 0.00 in0.0 mm 0.00 in0.0 mm
10:55 PM 49.8°F9.9°C 22.5°F-5.3°C 34% 3.5 mph ENE5.6 kmh ENE 4.6 mph7.4 kmh 29.75 in1007.5 mb - 0.00 in0.0 mm 0.00 in0.0 mm
11:00 PM 49.6°F9.8°C 22.4°F-5.3°C 34% 4.6 mph NNE7.4 kmh NNE 3.5 mph5.6 kmh 29.74 in1007.1 mb - 0.00 in0.0 mm 0.00 in0.0 mm
11:10 PM 49.5°F9.7°C 22.9°F-5.1°C 35% 8.1 mph NNE13.0 kmh NNE 9.2 mph14.8 kmh 29.74 in1007.1 mb - 0.00 in0.0 mm 0.00 in0.0 mm
11:15 PM 49.3°F9.6°C 22.8°F-5.1°C 35% 5.8 mph NE9.3 kmh NE 4.6 mph7.4 kmh 29.74 in1007.1 mb - 0.00 in0.0 mm 0.00 in0.0 mm
11:20 PM 48.9°F9.4°C 22.4°F-5.3°C 35% 5.8 mph NE9.3 kmh NE 8.1 mph13.0 kmh 29.74 in1007.1 mb - 0.00 in0.0 mm 0.00 in0.0 mm
11:25 PM 48.9°F9.4°C 21.7°F-5.7°C 34% 4.6 mph NE7.4 kmh NE 4.6 mph7.4 kmh 29.74 in1007.1 mb - 0.00 in0.0 mm 0.00 in0.0 mm
11:30 PM 48.7°F9.3°C 22.3°F-5.4°C 35% 4.6 mph NE7.4 kmh NE 4.6 mph7.4 kmh 29.75 in1007.5 mb - 0.00 in0.0 mm 0.00 in0.0 mm
11:35 PM 48.6°F9.2°C 22.1°F-5.5°C 35% 5.8 mph NE9.3 kmh NE 5.8 mph9.3 kmh 29.75 in1007.5 mb - 0.00 in0.0 mm 0.00 in0.0 mm
11:40 PM 48.4°F9.1°C 22.0°F-5.6°C 35% 4.6 mph NNE7.4 kmh NNE 9.2 mph14.8 kmh 29.75 in1007.5 mb - 0.00 in0.0 mm 0.00 in0.0 mm
11:45 PM 48.4°F9.1°C 22.0°F-5.6°C 35% 5.8 mph NE9.3 kmh NE 8.1 mph13.0 kmh 29.74 in1007.1 mb - 0.00 in0.0 mm 0.00 in0.0 mm
11:50 PM 48.2°F9.0°C 21.8°F-5.7°C 35% 5.8 mph NE9.3 kmh NE 4.6 mph7.4 kmh 29.74 in1007.1 mb - 0.00 in0.0 mm 0.00 in0.0 mm
11:55 PM 48.0°F8.9°C 21.6°F-5.8°C 35% 4.6 mph NE7.4 kmh NE 5.8 mph9.3 kmh 29.74 in1007.1 mb - 0.00 in0.0 mm 0.00 in0.0 mm